Terminal Aerodrome Forecast
Issued by NWS Wakefield, VA

Home | Current Version | Previous Version | Text Only | Print | Product List | Glossary On
Versions: 1 2 3 4 5 6 7 8 9 10 11 12 13
000
FTUS41 KAKQ 301100
TAFRIC
TAF
KRIC 301128Z 3012/3112 14005KT P6SM BKN025 OVC060
     FM301500 17008KT P6SM SCT035
     FM310000 19005KT P6SM BKN250=

USA.gov is the U.S. government's official web portal to all federal, state and local government web resources and services.